sensor_id;sensor_type;location;lat;lon;timestamp;P1;durP1;ratioP1;P2;durP2;ratioP2
12908;SDS011;6522;49.622;6.126;2023-04-03T00:02:09;9.18;;;8.45;;
12908;SDS011;6522;49.622;6.126;2023-04-03T00:04:56;8.10;;;7.60;;
12908;SDS011;6522;49.622;6.126;2023-04-03T00:07:43;10.02;;;8.10;;
12908;SDS011;6522;49.622;6.126;2023-04-03T00:10:29;8.43;;;7.82;;
12908;SDS011;6522;49.622;6.126;2023-04-03T00:13:16;7.95;;;7.50;;
12908;SDS011;6522;49.622;6.126;2023-04-03T00:16:03;7.62;;;7.22;;
12908;SDS011;6522;49.622;6.126;2023-04-03T00:18:50;8.50;;;8.00;;
12908;SDS011;6522;49.622;6.126;2023-04-03T00:21:37;9.10;;;8.50;;
12908;SDS011;6522;49.622;6.126;2023-04-03T00:24:24;7.70;;;7.30;;
12908;SDS011;6522;49.622;6.126;2023-04-03T00:27:11;8.98;;;8.35;;
12908;SDS011;6522;49.622;6.126;2023-04-03T00:29:58;7.25;;;6.75;;
12908;SDS011;6522;49.622;6.126;2023-04-03T00:32:45;7.43;;;6.93;;
12908;SDS011;6522;49.622;6.126;2023-04-03T00:35:31;8.40;;;7.70;;
12908;SDS011;6522;49.622;6.126;2023-04-03T00:38:18;9.27;;;8.77;;
12908;SDS011;6522;49.622;6.126;2023-04-03T00:41:05;9.88;;;9.30;;
12908;SDS011;6522;49.622;6.126;2023-04-03T00:43:52;9.73;;;9.23;;
12908;SDS011;6522;49.622;6.126;2023-04-03T00:46:38;9.05;;;8.55;;
12908;SDS011;6522;49.622;6.126;2023-04-03T00:49:26;7.57;;;7.07;;
12908;SDS011;6522;49.622;6.126;2023-04-03T00:52:15;9.38;;;8.88;;
12908;SDS011;6522;49.622;6.126;2023-04-03T00:55:00;9.80;;;9.20;;
12908;SDS011;6522;49.622;6.126;2023-04-03T00:57:45;9.80;;;9.15;;
12908;SDS011;6522;49.622;6.126;2023-04-03T01:00:32;9.90;;;9.20;;
12908;SDS011;6522;49.622;6.126;2023-04-03T01:03:19;8.95;;;8.45;;
12908;SDS011;6522;49.622;6.126;2023-04-03T01:06:06;10.90;;;10.30;;
12908;SDS011;6522;49.622;6.126;2023-04-03T01:08:53;9.90;;;9.38;;
12908;SDS011;6522;49.622;6.126;2023-04-03T01:11:39;10.20;;;9.40;;
12908;SDS011;6522;49.622;6.126;2023-04-03T01:14:26;9.25;;;8.70;;
12908;SDS011;6522;49.622;6.126;2023-04-03T01:25:55;9.27;;;8.77;;
12908;SDS011;6522;49.622;6.126;2023-04-03T01:28:42;9.43;;;8.93;;
12908;SDS011;6522;49.622;6.126;2023-04-03T01:34:22;10.27;;;9.75;;
12908;SDS011;6522;49.622;6.126;2023-04-03T01:37:08;10.38;;;9.88;;
12908;SDS011;6522;49.622;6.126;2023-04-03T01:39:55;10.02;;;9.43;;
12908;SDS011;6522;49.622;6.126;2023-04-03T01:42:42;9.50;;;8.98;;
12908;SDS011;6522;49.622;6.126;2023-04-03T01:45:28;9.07;;;8.57;;
12908;SDS011;6522;49.622;6.126;2023-04-03T01:48:15;10.65;;;10.15;;
12908;SDS011;6522;49.622;6.126;2023-04-03T01:51:02;9.45;;;8.85;;
12908;SDS011;6522;49.622;6.126;2023-04-03T01:53:48;8.90;;;8.30;;
12908;SDS011;6522;49.622;6.126;2023-04-03T01:56:36;10.68;;;10.00;;
12908;SDS011;6522;49.622;6.126;2023-04-03T01:59:22;9.40;;;8.90;;
12908;SDS011;6522;49.622;6.126;2023-04-03T02:02:09;10.27;;;9.73;;
12908;SDS011;6522;49.622;6.126;2023-04-03T02:04:56;10.05;;;9.25;;
12908;SDS011;6522;49.622;6.126;2023-04-03T02:07:42;11.55;;;10.95;;
12908;SDS011;6522;49.622;6.126;2023-04-03T02:10:29;10.98;;;10.27;;
12908;SDS011;6522;49.622;6.126;2023-04-03T02:13:16;10.80;;;10.20;;
12908;SDS011;6522;49.622;6.126;2023-04-03T02:16:06;8.45;;;7.85;;
12908;SDS011;6522;49.622;6.126;2023-04-03T02:18:52;8.80;;;8.20;;
12908;SDS011;6522;49.622;6.126;2023-04-03T02:21:39;10.57;;;9.95;;
12908;SDS011;6522;49.622;6.126;2023-04-03T02:24:26;9.35;;;8.85;;
12908;SDS011;6522;49.622;6.126;2023-04-03T02:27:13;8.63;;;7.93;;
12908;SDS011;6522;49.622;6.126;2023-04-03T02:30:00;8.63;;;7.95;;
12908;SDS011;6522;49.622;6.126;2023-04-03T02:32:47;8.18;;;7.62;;
12908;SDS011;6522;49.622;6.126;2023-04-03T02:35:34;10.40;;;9.70;;
12908;SDS011;6522;49.622;6.126;2023-04-03T02:38:21;9.60;;;9.02;;
12908;SDS011;6522;49.622;6.126;2023-04-03T02:41:09;9.10;;;8.50;;
12908;SDS011;6522;49.622;6.126;2023-04-03T02:43:54;9.52;;;8.65;;
12908;SDS011;6522;49.622;6.126;2023-04-03T02:46:41;10.57;;;9.88;;
12908;SDS011;6522;49.622;6.126;2023-04-03T02:49:27;10.13;;;9.63;;
12908;SDS011;6522;49.622;6.126;2023-04-03T02:52:14;9.13;;;8.63;;
12908;SDS011;6522;49.622;6.126;2023-04-03T02:55:00;10.52;;;9.82;;
12908;SDS011;6522;49.622;6.126;2023-04-03T02:57:47;8.88;;;8.38;;
12908;SDS011;6522;49.622;6.126;2023-04-03T03:00:34;10.13;;;9.32;;
12908;SDS011;6522;49.622;6.126;2023-04-03T03:03:21;8.55;;;8.05;;
12908;SDS011;6522;49.622;6.126;2023-04-03T03:06:09;8.45;;;8.00;;
12908;SDS011;6522;49.622;6.126;2023-04-03T03:08:55;7.45;;;6.95;;
12908;SDS011;6522;49.622;6.126;2023-04-03T03:11:41;8.90;;;8.10;;
12908;SDS011;6522;49.622;6.126;2023-04-03T03:14:28;7.20;;;6.70;;
12908;SDS011;6522;49.622;6.126;2023-04-03T03:17:15;6.65;;;6.25;;
12908;SDS011;6522;49.622;6.126;2023-04-03T03:20:02;7.87;;;7.28;;
12908;SDS011;6522;49.622;6.126;2023-04-03T03:22:48;8.65;;;7.95;;
12908;SDS011;6522;49.622;6.126;2023-04-03T03:25:38;6.70;;;6.30;;
12908;SDS011;6522;49.622;6.126;2023-04-03T03:28:25;7.55;;;7.12;;
12908;SDS011;6522;49.622;6.126;2023-04-03T03:31:11;7.85;;;7.35;;
12908;SDS011;6522;49.622;6.126;2023-04-03T03:33:58;5.57;;;5.07;;
12908;SDS011;6522;49.622;6.126;2023-04-03T03:36:45;7.55;;;6.90;;
12908;SDS011;6522;49.622;6.126;2023-04-03T03:39:32;8.52;;;7.97;;
12908;SDS011;6522;49.622;6.126;2023-04-03T03:42:19;5.93;;;5.43;;
12908;SDS011;6522;49.622;6.126;2023-04-03T03:45:05;8.05;;;7.45;;
12908;SDS011;6522;49.622;6.126;2023-04-03T03:47:52;7.22;;;6.72;;
12908;SDS011;6522;49.622;6.126;2023-04-03T03:50:39;7.25;;;6.57;;
12908;SDS011;6522;49.622;6.126;2023-04-03T03:53:25;8.75;;;8.10;;
12908;SDS011;6522;49.622;6.126;2023-04-03T03:56:12;6.75;;;6.32;;
12908;SDS011;6522;49.622;6.126;2023-04-03T03:58:59;7.87;;;7.28;;
12908;SDS011;6522;49.622;6.126;2023-04-03T04:01:45;4.95;;;3.92;;
12908;SDS011;6522;49.622;6.126;2023-04-03T04:04:32;5.78;;;4.82;;
12908;SDS011;6522;49.622;6.126;2023-04-03T04:07:19;6.87;;;6.47;;
12908;SDS011;6522;49.622;6.126;2023-04-03T04:10:06;6.72;;;6.12;;
12908;SDS011;6522;49.622;6.126;2023-04-03T04:12:53;7.80;;;7.15;;
12908;SDS011;6522;49.622;6.126;2023-04-03T04:15:40;5.20;;;4.70;;
12908;SDS011;6522;49.622;6.126;2023-04-03T04:18:26;7.10;;;4.60;;
12908;SDS011;6522;49.622;6.126;2023-04-03T04:21:13;6.85;;;6.35;;
12908;SDS011;6522;49.622;6.126;2023-04-03T04:24:00;5.70;;;5.20;;
12908;SDS011;6522;49.622;6.126;2023-04-03T04:26:47;5.70;;;5.20;;
12908;SDS011;6522;49.622;6.126;2023-04-03T04:29:34;6.62;;;6.12;;
12908;SDS011;6522;49.622;6.126;2023-04-03T04:32:20;6.22;;;5.70;;
12908;SDS011;6522;49.622;6.126;2023-04-03T04:35:07;7.18;;;6.55;;
12908;SDS011;6522;49.622;6.126;2023-04-03T04:37:55;7.05;;;6.43;;
12908;SDS011;6522;49.622;6.126;2023-04-03T04:40:41;8.13;;;7.40;;
12908;SDS011;6522;49.622;6.126;2023-04-03T04:43:28;7.55;;;6.95;;
12908;SDS011;6522;49.622;6.126;2023-04-03T04:46:15;7.40;;;6.90;;
12908;SDS011;6522;49.622;6.126;2023-04-03T04:49:01;6.90;;;6.30;;
12908;SDS011;6522;49.622;6.126;2023-04-03T04:51:48;8.05;;;7.35;;
12908;SDS011;6522;49.622;6.126;2023-04-03T04:54:35;6.50;;;5.97;;
12908;SDS011;6522;49.622;6.126;2023-04-03T04:57:21;6.03;;;5.45;;
12908;SDS011;6522;49.622;6.126;2023-04-03T05:00:08;7.93;;;7.37;;
12908;SDS011;6522;49.622;6.126;2023-04-03T05:02:55;7.55;;;6.82;;
12908;SDS011;6522;49.622;6.126;2023-04-03T05:05:42;4.40;;;3.90;;
12908;SDS011;6522;49.622;6.126;2023-04-03T05:08:28;12.35;;;5.80;;
12908;SDS011;6522;49.622;6.126;2023-04-03T05:11:15;5.93;;;5.40;;
12908;SDS011;6522;49.622;6.126;2023-04-03T05:14:02;7.40;;;6.85;;
12908;SDS011;6522;49.622;6.126;2023-04-03T05:16:48;6.80;;;6.30;;
12908;SDS011;6522;49.622;6.126;2023-04-03T05:19:35;6.72;;;6.18;;
12908;SDS011;6522;49.622;6.126;2023-04-03T05:22:22;7.57;;;6.90;;
12908;SDS011;6522;49.622;6.126;2023-04-03T05:25:09;6.53;;;5.95;;
12908;SDS011;6522;49.622;6.126;2023-04-03T05:27:55;6.95;;;6.55;;
12908;SDS011;6522;49.622;6.126;2023-04-03T05:30:42;7.68;;;7.07;;
12908;SDS011;6522;49.622;6.126;2023-04-03T05:33:29;7.20;;;6.15;;
12908;SDS011;6522;49.622;6.126;2023-04-03T05:36:16;7.18;;;6.47;;
12908;SDS011;6522;49.622;6.126;2023-04-03T05:39:03;5.50;;;5.00;;
12908;SDS011;6522;49.622;6.126;2023-04-03T05:41:49;5.95;;;5.45;;
12908;SDS011;6522;49.622;6.126;2023-04-03T05:44:37;6.55;;;6.05;;
12908;SDS011;6522;49.622;6.126;2023-04-03T05:47:23;7.03;;;6.53;;
12908;SDS011;6522;49.622;6.126;2023-04-03T05:50:10;8.32;;;7.72;;
12908;SDS011;6522;49.622;6.126;2023-04-03T05:52:57;7.28;;;6.68;;
12908;SDS011;6522;49.622;6.126;2023-04-03T05:55:44;7.40;;;6.75;;
12908;SDS011;6522;49.622;6.126;2023-04-03T05:58:31;6.82;;;6.32;;
12908;SDS011;6522;49.622;6.126;2023-04-03T06:01:17;6.50;;;3.75;;
12908;SDS011;6522;49.622;6.126;2023-04-03T06:04:04;6.10;;;5.57;;
12908;SDS011;6522;49.622;6.126;2023-04-03T06:06:52;6.45;;;5.85;;
12908;SDS011;6522;49.622;6.126;2023-04-03T06:09:38;7.82;;;7.07;;
12908;SDS011;6522;49.622;6.126;2023-04-03T06:12:25;8.23;;;7.60;;
12908;SDS011;6522;49.622;6.126;2023-04-03T06:15:11;7.32;;;6.30;;
12908;SDS011;6522;49.622;6.126;2023-04-03T06:17:58;5.93;;;5.43;;
12908;SDS011;6522;49.622;6.126;2023-04-03T06:20:45;8.20;;;7.68;;
12908;SDS011;6522;49.622;6.126;2023-04-03T06:23:32;6.85;;;6.45;;
12908;SDS011;6522;49.622;6.126;2023-04-03T06:26:18;8.50;;;7.80;;
12908;SDS011;6522;49.622;6.126;2023-04-03T06:29:05;7.28;;;6.68;;
12908;SDS011;6522;49.622;6.126;2023-04-03T06:31:52;6.30;;;5.70;;
12908;SDS011;6522;49.622;6.126;2023-04-03T06:34:38;18.60;;;6.45;;
12908;SDS011;6522;49.622;6.126;2023-04-03T06:37:25;6.20;;;5.70;;
12908;SDS011;6522;49.622;6.126;2023-04-03T06:40:18;5.37;;;4.80;;
12908;SDS011;6522;49.622;6.126;2023-04-03T06:43:02;5.00;;;4.60;;
12908;SDS011;6522;49.622;6.126;2023-04-03T06:45:49;6.97;;;6.28;;
12908;SDS011;6522;49.622;6.126;2023-04-03T06:48:36;5.53;;;4.97;;
12908;SDS011;6522;49.622;6.126;2023-04-03T06:51:24;5.50;;;5.10;;
12908;SDS011;6522;49.622;6.126;2023-04-03T06:54:10;4.62;;;4.00;;
12908;SDS011;6522;49.622;6.126;2023-04-03T06:56:57;5.97;;;5.50;;
12908;SDS011;6522;49.622;6.126;2023-04-03T06:59:44;6.45;;;5.95;;
12908;SDS011;6522;49.622;6.126;2023-04-03T07:02:30;6.20;;;5.80;;
12908;SDS011;6522;49.622;6.126;2023-04-03T07:05:17;7.20;;;6.75;;
12908;SDS011;6522;49.622;6.126;2023-04-03T07:08:04;7.22;;;6.82;;
12908;SDS011;6522;49.622;6.126;2023-04-03T07:10:51;6.43;;;5.82;;
12908;SDS011;6522;49.622;6.126;2023-04-03T07:13:38;9.43;;;8.82;;
12908;SDS011;6522;49.622;6.126;2023-04-03T07:16:24;8.30;;;7.60;;
12908;SDS011;6522;49.622;6.126;2023-04-03T07:19:11;10.35;;;9.75;;
12908;SDS011;6522;49.622;6.126;2023-04-03T07:21:57;10.65;;;9.85;;
12908;SDS011;6522;49.622;6.126;2023-04-03T07:24:44;11.25;;;10.43;;
12908;SDS011;6522;49.622;6.126;2023-04-03T07:27:31;11.57;;;10.82;;
12908;SDS011;6522;49.622;6.126;2023-04-03T07:30:17;11.70;;;11.12;;
12908;SDS011;6522;49.622;6.126;2023-04-03T07:33:04;11.80;;;11.00;;
12908;SDS011;6522;49.622;6.126;2023-04-03T07:35:51;12.00;;;11.12;;
12908;SDS011;6522;49.622;6.126;2023-04-03T07:38:37;9.77;;;9.23;;
12908;SDS011;6522;49.622;6.126;2023-04-03T07:41:25;14.20;;;13.02;;
12908;SDS011;6522;49.622;6.126;2023-04-03T07:44:11;13.68;;;12.95;;
12908;SDS011;6522;49.622;6.126;2023-04-03T07:46:58;12.57;;;11.77;;
12908;SDS011;6522;49.622;6.126;2023-04-03T07:49:45;13.20;;;12.15;;
12908;SDS011;6522;49.622;6.126;2023-04-03T07:52:32;11.82;;;11.32;;
12908;SDS011;6522;49.622;6.126;2023-04-03T07:55:19;12.98;;;12.37;;
12908;SDS011;6522;49.622;6.126;2023-04-03T07:58:06;14.25;;;13.57;;
12908;SDS011;6522;49.622;6.126;2023-04-03T08:00:52;14.93;;;14.25;;
12908;SDS011;6522;49.622;6.126;2023-04-03T08:03:39;13.73;;;12.95;;
12908;SDS011;6522;49.622;6.126;2023-04-03T08:06:26;12.00;;;11.40;;
12908;SDS011;6522;49.622;6.126;2023-04-03T08:09:16;14.55;;;13.85;;
12908;SDS011;6522;49.622;6.126;2023-04-03T08:12:00;13.37;;;12.57;;
12908;SDS011;6522;49.622;6.126;2023-04-03T08:14:46;13.70;;;13.00;;
12908;SDS011;6522;49.622;6.126;2023-04-03T08:17:33;12.90;;;12.13;;
12908;SDS011;6522;49.622;6.126;2023-04-03T08:20:20;17.05;;;16.05;;
12908;SDS011;6522;49.622;6.126;2023-04-03T08:23:07;15.93;;;15.18;;
12908;SDS011;6522;49.622;6.126;2023-04-03T08:25:54;16.50;;;15.80;;
12908;SDS011;6522;49.622;6.126;2023-04-03T08:28:40;16.90;;;16.10;;
12908;SDS011;6522;49.622;6.126;2023-04-03T08:31:28;17.58;;;16.77;;
12908;SDS011;6522;49.622;6.126;2023-04-03T08:34:15;17.60;;;16.80;;
12908;SDS011;6522;49.622;6.126;2023-04-03T08:37:02;16.65;;;15.75;;
12908;SDS011;6522;49.622;6.126;2023-04-03T08:39:48;18.90;;;17.92;;
12908;SDS011;6522;49.622;6.126;2023-04-03T08:42:44;17.95;;;17.12;;
12908;SDS011;6522;49.622;6.126;2023-04-03T08:45:41;17.92;;;17.23;;
12908;SDS011;6522;49.622;6.126;2023-04-03T08:48:27;17.85;;;17.10;;
12908;SDS011;6522;49.622;6.126;2023-04-03T08:51:15;19.58;;;18.58;;
12908;SDS011;6522;49.622;6.126;2023-04-03T08:56:45;18.33;;;17.42;;
12908;SDS011;6522;49.622;6.126;2023-04-03T08:59:35;18.48;;;17.67;;
12908;SDS011;6522;49.622;6.126;2023-04-03T09:02:23;18.60;;;17.70;;
12908;SDS011;6522;49.622;6.126;2023-04-03T09:05:12;16.67;;;15.77;;
12908;SDS011;6522;49.622;6.126;2023-04-03T09:08:05;19.27;;;18.37;;
12908;SDS011;6522;49.622;6.126;2023-04-03T09:10:47;18.45;;;17.58;;
12908;SDS011;6522;49.622;6.126;2023-04-03T09:16:48;17.83;;;17.02;;
12908;SDS011;6522;49.622;6.126;2023-04-03T09:22:23;18.70;;;17.90;;
12908;SDS011;6522;49.622;6.126;2023-04-03T09:27:56;19.05;;;18.15;;
12908;SDS011;6522;49.622;6.126;2023-04-03T09:30:43;18.33;;;17.42;;
12908;SDS011;6522;49.622;6.126;2023-04-03T09:33:30;19.05;;;18.17;;
12908;SDS011;6522;49.622;6.126;2023-04-03T09:39:27;21.17;;;20.17;;
12908;SDS011;6522;49.622;6.126;2023-04-03T09:42:22;21.27;;;20.37;;
12908;SDS011;6522;49.622;6.126;2023-04-03T09:45:18;22.70;;;21.55;;
12908;SDS011;6522;49.622;6.126;2023-04-03T09:48:39;21.12;;;19.98;;
12908;SDS011;6522;49.622;6.126;2023-04-03T09:53:41;20.50;;;19.50;;
12908;SDS011;6522;49.622;6.126;2023-04-03T09:56:28;20.88;;;19.80;;
12908;SDS011;6522;49.622;6.126;2023-04-03T09:59:14;21.30;;;20.40;;
12908;SDS011;6522;49.622;6.126;2023-04-03T10:04:57;21.87;;;20.80;;
12908;SDS011;6522;49.622;6.126;2023-04-03T10:07:44;22.45;;;21.25;;
12908;SDS011;6522;49.622;6.126;2023-04-03T10:10:30;20.55;;;19.60;;
12908;SDS011;6522;49.622;6.126;2023-04-03T10:13:18;15.30;;;14.60;;
12908;SDS011;6522;49.622;6.126;2023-04-03T10:16:07;20.58;;;19.67;;
12908;SDS011;6522;49.622;6.126;2023-04-03T10:21:42;20.20;;;19.40;;
12908;SDS011;6522;49.622;6.126;2023-04-03T10:36:21;20.08;;;19.12;;
12908;SDS011;6522;49.622;6.126;2023-04-03T10:39:08;21.80;;;20.50;;
12908;SDS011;6522;49.622;6.126;2023-04-03T10:42:00;25.30;;;24.20;;
12908;SDS011;6522;49.622;6.126;2023-04-03T10:44:52;22.00;;;21.05;;
12908;SDS011;6522;49.622;6.126;2023-04-03T10:53:37;22.20;;;21.10;;
12908;SDS011;6522;49.622;6.126;2023-04-03T10:56:27;19.05;;;18.15;;
12908;SDS011;6522;49.622;6.126;2023-04-03T10:59:14;21.73;;;20.73;;
12908;SDS011;6522;49.622;6.126;2023-04-03T11:02:00;18.70;;;17.80;;
12908;SDS011;6522;49.622;6.126;2023-04-03T11:04:47;18.25;;;17.40;;
12908;SDS011;6522;49.622;6.126;2023-04-03T11:07:34;21.70;;;20.60;;
12908;SDS011;6522;49.622;6.126;2023-04-03T11:10:24;19.45;;;18.35;;
12908;SDS011;6522;49.622;6.126;2023-04-03T11:13:20;19.27;;;18.17;;
12908;SDS011;6522;49.622;6.126;2023-04-03T11:15:56;21.57;;;20.57;;
12908;SDS011;6522;49.622;6.126;2023-04-03T11:18:45;18.50;;;17.50;;
12908;SDS011;6522;49.622;6.126;2023-04-03T11:21:34;18.27;;;17.37;;
12908;SDS011;6522;49.622;6.126;2023-04-03T11:24:17;21.63;;;20.60;;
12908;SDS011;6522;49.622;6.126;2023-04-03T11:27:03;19.83;;;18.43;;
12908;SDS011;6522;49.622;6.126;2023-04-03T11:29:50;19.37;;;18.37;;
12908;SDS011;6522;49.622;6.126;2023-04-03T11:35:35;19.20;;;18.20;;
12908;SDS011;6522;49.622;6.126;2023-04-03T11:38:27;18.70;;;17.80;;
12908;SDS011;6522;49.622;6.126;2023-04-03T11:41:25;21.53;;;20.53;;
12908;SDS011;6522;49.622;6.126;2023-04-03T11:43:59;19.10;;;18.10;;
12908;SDS011;6522;49.622;6.126;2023-04-03T11:47:04;18.83;;;17.90;;
12908;SDS011;6522;49.622;6.126;2023-04-03T11:58:18;19.20;;;18.10;;
12908;SDS011;6522;49.622;6.126;2023-04-03T12:01:05;18.97;;;17.87;;
12908;SDS011;6522;49.622;6.126;2023-04-03T12:12:21;18.55;;;17.58;;
12908;SDS011;6522;49.622;6.126;2023-04-03T12:15:41;22.27;;;21.27;;
12908;SDS011;6522;49.622;6.126;2023-04-03T12:27:11;18.55;;;17.65;;
12908;SDS011;6522;49.622;6.126;2023-04-03T12:36:03;18.90;;;17.80;;
12908;SDS011;6522;49.622;6.126;2023-04-03T12:42:05;18.80;;;17.80;;
12908;SDS011;6522;49.622;6.126;2023-04-03T12:44:55;22.10;;;21.07;;
12908;SDS011;6522;49.622;6.126;2023-04-03T12:47:36;19.00;;;18.10;;
12908;SDS011;6522;49.622;6.126;2023-04-03T12:50:24;18.60;;;17.60;;
12908;SDS011;6522;49.622;6.126;2023-04-03T12:53:16;18.90;;;17.95;;
12908;SDS011;6522;49.622;6.126;2023-04-03T12:56:19;22.13;;;21.03;;
12908;SDS011;6522;49.622;6.126;2023-04-03T12:59:24;19.00;;;18.10;;
12908;SDS011;6522;49.622;6.126;2023-04-03T13:02:20;18.80;;;17.80;;
12908;SDS011;6522;49.622;6.126;2023-04-03T13:05:07;21.37;;;20.33;;
12908;SDS011;6522;49.622;6.126;2023-04-03T13:07:58;18.30;;;17.40;;
12908;SDS011;6522;49.622;6.126;2023-04-03T13:10:48;21.60;;;20.60;;
12908;SDS011;6522;49.622;6.126;2023-04-03T13:13:29;18.60;;;17.70;;
12908;SDS011;6522;49.622;6.126;2023-04-03T13:16:16;22.47;;;20.97;;
12908;SDS011;6522;49.622;6.126;2023-04-03T13:19:03;18.73;;;17.80;;
12908;SDS011;6522;49.622;6.126;2023-04-03T13:21:51;18.10;;;17.20;;
12908;SDS011;6522;49.622;6.126;2023-04-03T13:24:37;21.20;;;20.27;;
12908;SDS011;6522;49.622;6.126;2023-04-03T13:27:23;18.52;;;17.40;;
12908;SDS011;6522;49.622;6.126;2023-04-03T13:30:30;18.50;;;17.60;;
12908;SDS011;6522;49.622;6.126;2023-04-03T13:33:20;18.37;;;17.40;;
12908;SDS011;6522;49.622;6.126;2023-04-03T13:36:07;17.60;;;16.73;;
12908;SDS011;6522;49.622;6.126;2023-04-03T13:38:59;21.40;;;20.30;;
12908;SDS011;6522;49.622;6.126;2023-04-03T13:41:46;18.60;;;17.50;;
12908;SDS011;6522;49.622;6.126;2023-04-03T13:44:33;18.00;;;16.80;;
12908;SDS011;6522;49.622;6.126;2023-04-03T13:47:22;20.50;;;19.60;;
12908;SDS011;6522;49.622;6.126;2023-04-03T13:53:02;17.00;;;16.10;;
12908;SDS011;6522;49.622;6.126;2023-04-03T13:55:53;20.33;;;19.43;;
12908;SDS011;6522;49.622;6.126;2023-04-03T13:58:37;18.07;;;17.20;;
12908;SDS011;6522;49.622;6.126;2023-04-03T14:01:24;17.40;;;16.40;;
12908;SDS011;6522;49.622;6.126;2023-04-03T14:04:16;19.77;;;18.73;;
12908;SDS011;6522;49.622;6.126;2023-04-03T14:06:58;17.45;;;16.50;;
12908;SDS011;6522;49.622;6.126;2023-04-03T14:09:45;16.77;;;15.88;;
12908;SDS011;6522;49.622;6.126;2023-04-03T14:12:38;20.70;;;19.80;;
12908;SDS011;6522;49.622;6.126;2023-04-03T14:15:26;17.98;;;17.08;;
12908;SDS011;6522;49.622;6.126;2023-04-03T14:18:13;17.70;;;16.80;;
12908;SDS011;6522;49.622;6.126;2023-04-03T14:20:58;17.90;;;16.90;;
12908;SDS011;6522;49.622;6.126;2023-04-03T14:23:45;19.97;;;19.10;;
12908;SDS011;6522;49.622;6.126;2023-04-03T14:26:32;17.40;;;16.30;;
12908;SDS011;6522;49.622;6.126;2023-04-03T14:29:22;17.20;;;16.20;;
12908;SDS011;6522;49.622;6.126;2023-04-03T14:32:06;20.37;;;19.20;;
12908;SDS011;6522;49.622;6.126;2023-04-03T14:34:53;17.30;;;16.30;;
12908;SDS011;6522;49.622;6.126;2023-04-03T14:37:40;17.70;;;16.70;;
12908;SDS011;6522;49.622;6.126;2023-04-03T14:40:27;17.90;;;16.90;;
12908;SDS011;6522;49.622;6.126;2023-04-03T14:43:13;21.63;;;20.53;;
12908;SDS011;6522;49.622;6.126;2023-04-03T14:46:00;17.80;;;16.80;;
12908;SDS011;6522;49.622;6.126;2023-04-03T14:48:47;17.83;;;16.83;;
12908;SDS011;6522;49.622;6.126;2023-04-03T14:51:34;21.10;;;20.20;;
12908;SDS011;6522;49.622;6.126;2023-04-03T14:54:21;17.48;;;16.58;;
12908;SDS011;6522;49.622;6.126;2023-04-03T14:57:08;17.52;;;16.60;;
12908;SDS011;6522;49.622;6.126;2023-04-03T14:59:55;20.30;;;19.40;;
12908;SDS011;6522;49.622;6.126;2023-04-03T15:02:42;19.70;;;18.80;;
12908;SDS011;6522;49.622;6.126;2023-04-03T15:05:29;21.10;;;20.10;;
12908;SDS011;6522;49.622;6.126;2023-04-03T15:08:20;20.40;;;19.50;;
12908;SDS011;6522;49.622;6.126;2023-04-03T15:11:05;20.75;;;19.85;;
12908;SDS011;6522;49.622;6.126;2023-04-03T15:13:52;20.65;;;19.65;;
12908;SDS011;6522;49.622;6.126;2023-04-03T15:16:39;21.05;;;20.05;;
12908;SDS011;6522;49.622;6.126;2023-04-03T15:19:26;21.83;;;20.83;;
12908;SDS011;6522;49.622;6.126;2023-04-03T15:22:13;21.30;;;20.40;;
12908;SDS011;6522;49.622;6.126;2023-04-03T15:24:59;17.05;;;16.15;;
12908;SDS011;6522;49.622;6.126;2023-04-03T15:27:46;20.75;;;19.75;;
12908;SDS011;6522;49.622;6.126;2023-04-03T15:30:33;20.58;;;19.67;;
12908;SDS011;6522;49.622;6.126;2023-04-03T15:33:20;21.10;;;20.20;;
12908;SDS011;6522;49.622;6.126;2023-04-03T15:36:06;15.50;;;14.70;;
12908;SDS011;6522;49.622;6.126;2023-04-03T15:38:53;21.08;;;19.87;;
12908;SDS011;6522;49.622;6.126;2023-04-03T15:41:40;20.92;;;19.92;;
12908;SDS011;6522;49.622;6.126;2023-04-03T15:44:26;21.10;;;20.10;;
12908;SDS011;6522;49.622;6.126;2023-04-03T15:47:13;20.65;;;19.75;;
12908;SDS011;6522;49.622;6.126;2023-04-03T15:50:00;19.92;;;19.12;;
12908;SDS011;6522;49.622;6.126;2023-04-03T15:52:47;21.55;;;20.52;;
12908;SDS011;6522;49.622;6.126;2023-04-03T15:55:34;21.15;;;20.15;;
12908;SDS011;6522;49.622;6.126;2023-04-03T15:58:20;20.80;;;19.85;;
12908;SDS011;6522;49.622;6.126;2023-04-03T16:01:08;20.85;;;19.85;;
12908;SDS011;6522;49.622;6.126;2023-04-03T16:03:54;21.48;;;20.37;;
12908;SDS011;6522;49.622;6.126;2023-04-03T16:06:40;20.67;;;19.50;;
12908;SDS011;6522;49.622;6.126;2023-04-03T16:09:27;20.02;;;19.12;;
12908;SDS011;6522;49.622;6.126;2023-04-03T16:12:14;15.70;;;14.77;;
12908;SDS011;6522;49.622;6.126;2023-04-03T16:15:01;15.50;;;14.70;;
12908;SDS011;6522;49.622;6.126;2023-04-03T16:17:48;15.38;;;14.57;;
12908;SDS011;6522;49.622;6.126;2023-04-03T16:20:34;20.77;;;19.75;;
12908;SDS011;6522;49.622;6.126;2023-04-03T16:23:21;20.10;;;19.20;;
12908;SDS011;6522;49.622;6.126;2023-04-03T16:26:08;20.05;;;19.15;;
12908;SDS011;6522;49.622;6.126;2023-04-03T16:28:55;19.48;;;18.67;;
12908;SDS011;6522;49.622;6.126;2023-04-03T16:31:42;20.02;;;19.05;;
12908;SDS011;6522;49.622;6.126;2023-04-03T16:34:28;19.83;;;18.92;;
12908;SDS011;6522;49.622;6.126;2023-04-03T16:37:15;19.85;;;18.70;;
12908;SDS011;6522;49.622;6.126;2023-04-03T16:40:02;19.98;;;18.98;;
12908;SDS011;6522;49.622;6.126;2023-04-03T16:42:48;19.05;;;18.15;;
12908;SDS011;6522;49.622;6.126;2023-04-03T16:45:35;19.15;;;18.35;;
12908;SDS011;6522;49.622;6.126;2023-04-03T16:48:21;15.43;;;14.73;;
12908;SDS011;6522;49.622;6.126;2023-04-03T16:51:08;20.33;;;19.33;;
12908;SDS011;6522;49.622;6.126;2023-04-03T16:53:55;20.58;;;19.55;;
12908;SDS011;6522;49.622;6.126;2023-04-03T16:56:41;16.77;;;15.77;;
12908;SDS011;6522;49.622;6.126;2023-04-03T16:59:28;20.88;;;19.98;;
12908;SDS011;6522;49.622;6.126;2023-04-03T17:02:14;20.37;;;19.12;;
12908;SDS011;6522;49.622;6.126;2023-04-03T17:05:01;15.60;;;14.70;;
12908;SDS011;6522;49.622;6.126;2023-04-03T17:07:48;21.35;;;20.20;;
12908;SDS011;6522;49.622;6.126;2023-04-03T17:10:34;20.80;;;19.83;;
12908;SDS011;6522;49.622;6.126;2023-04-03T17:13:21;19.60;;;18.70;;
12908;SDS011;6522;49.622;6.126;2023-04-03T17:16:09;20.50;;;19.50;;
12908;SDS011;6522;49.622;6.126;2023-04-03T17:18:54;20.45;;;19.40;;
12908;SDS011;6522;49.622;6.126;2023-04-03T17:21:41;19.70;;;18.90;;
12908;SDS011;6522;49.622;6.126;2023-04-03T17:24:28;19.98;;;19.08;;
12908;SDS011;6522;49.622;6.126;2023-04-03T17:27:14;20.30;;;19.30;;
12908;SDS011;6522;49.622;6.126;2023-04-03T17:30:02;19.60;;;18.60;;
12908;SDS011;6522;49.622;6.126;2023-04-03T17:32:48;19.55;;;18.65;;
12908;SDS011;6522;49.622;6.126;2023-04-03T17:35:35;19.90;;;18.80;;
12908;SDS011;6522;49.622;6.126;2023-04-03T17:38:21;14.38;;;13.57;;
12908;SDS011;6522;49.622;6.126;2023-04-03T17:41:08;19.37;;;18.58;;
12908;SDS011;6522;49.622;6.126;2023-04-03T17:43:54;19.55;;;18.40;;
12908;SDS011;6522;49.622;6.126;2023-04-03T17:46:41;19.90;;;18.90;;
12908;SDS011;6522;49.622;6.126;2023-04-03T17:49:28;19.35;;;18.45;;
12908;SDS011;6522;49.622;6.126;2023-04-03T17:52:15;19.85;;;19.05;;
12908;SDS011;6522;49.622;6.126;2023-04-03T17:55:02;20.70;;;19.70;;
12908;SDS011;6522;49.622;6.126;2023-04-03T17:57:48;20.90;;;19.92;;
12908;SDS011;6522;49.622;6.126;2023-04-03T18:00:35;19.48;;;18.67;;
12908;SDS011;6522;49.622;6.126;2023-04-03T18:03:22;18.92;;;18.05;;
12908;SDS011;6522;49.622;6.126;2023-04-03T18:06:09;19.00;;;18.10;;
12908;SDS011;6522;49.622;6.126;2023-04-03T18:08:56;19.95;;;19.05;;
12908;SDS011;6522;49.622;6.126;2023-04-03T18:11:42;19.95;;;18.95;;
12908;SDS011;6522;49.622;6.126;2023-04-03T18:14:28;19.87;;;18.87;;
12908;SDS011;6522;49.622;6.126;2023-04-03T18:17:15;20.10;;;19.20;;
12908;SDS011;6522;49.622;6.126;2023-04-03T18:20:02;19.23;;;18.40;;